sensor_id;sensor_type;location;lat;lon;timestamp;P1;durP1;ratioP1;P2;durP2;ratioP2
56519;SDS011;42420;53.586;10.052;2024-01-06T12:45:50;6.35;;;3.78;;
56519;SDS011;42420;53.586;10.052;2024-01-06T12:54:54;5.85;;;3.17;;
56519;SDS011;42420;53.586;10.052;2024-01-06T12:59:51;7.30;;;3.40;;
56519;SDS011;42420;53.586;10.052;2024-01-06T13:04:47;5.72;;;2.67;;
56519;SDS011;42420;53.586;10.052;2024-01-06T13:09:44;5.97;;;3.38;;
56519;SDS011;42420;53.586;10.052;2024-01-06T13:14:41;6.45;;;3.22;;
56519;SDS011;42420;53.586;10.052;2024-01-06T13:19:40;5.60;;;2.83;;
56519;SDS011;42420;53.586;10.052;2024-01-06T13:24:37;5.57;;;2.72;;
56519;SDS011;42420;53.586;10.052;2024-01-06T13:34:30;4.35;;;2.20;;
56519;SDS011;42420;53.586;10.052;2024-01-06T13:39:27;7.72;;;3.38;;
56519;SDS011;42420;53.586;10.052;2024-01-06T13:44:24;6.93;;;3.20;;
56519;SDS011;42420;53.586;10.052;2024-01-06T13:49:21;6.00;;;3.30;;
56519;SDS011;42420;53.586;10.052;2024-01-06T13:54:19;5.78;;;2.78;;
56519;SDS011;42420;53.586;10.052;2024-01-06T14:04:13;5.15;;;2.90;;
56519;SDS011;42420;53.586;10.052;2024-01-06T14:09:09;5.97;;;2.95;;
56519;SDS011;42420;53.586;10.052;2024-01-06T14:14:07;6.10;;;2.97;;
56519;SDS011;42420;53.586;10.052;2024-01-06T14:19:04;6.18;;;2.80;;
56519;SDS011;42420;53.586;10.052;2024-01-06T14:24:01;5.43;;;2.83;;
56519;SDS011;42420;53.586;10.052;2024-01-06T14:28:57;5.97;;;2.95;;
56519;SDS011;42420;53.586;10.052;2024-01-06T14:38:55;7.13;;;2.88;;
56519;SDS011;42420;53.586;10.052;2024-01-06T14:43:52;5.47;;;2.58;;
56519;SDS011;42420;53.586;10.052;2024-01-06T14:48:49;7.35;;;3.50;;
56519;SDS011;42420;53.586;10.052;2024-01-06T14:53:45;7.40;;;3.40;;
56519;SDS011;42420;53.586;10.052;2024-01-06T14:58:42;6.60;;;3.40;;
56519;SDS011;42420;53.586;10.052;2024-01-06T15:03:38;6.57;;;3.42;;
56519;SDS011;42420;53.586;10.052;2024-01-06T15:08:35;7.32;;;3.88;;
56519;SDS011;42420;53.586;10.052;2024-01-06T15:13:32;9.20;;;4.75;;
56519;SDS011;42420;53.586;10.052;2024-01-06T15:18:28;8.23;;;3.70;;
56519;SDS011;42420;53.586;10.052;2024-01-06T15:23:25;7.00;;;3.85;;
56519;SDS011;42420;53.586;10.052;2024-01-06T15:28:21;8.02;;;3.60;;
56519;SDS011;42420;53.586;10.052;2024-01-06T15:33:18;9.13;;;4.30;;
56519;SDS011;42420;53.586;10.052;2024-01-06T15:38:15;7.40;;;4.32;;
56519;SDS011;42420;53.586;10.052;2024-01-06T15:43:11;8.73;;;4.00;;
56519;SDS011;42420;53.586;10.052;2024-01-06T15:48:08;7.63;;;3.83;;
56519;SDS011;42420;53.586;10.052;2024-01-06T15:53:05;8.00;;;3.88;;
56519;SDS011;42420;53.586;10.052;2024-01-06T15:58:01;9.52;;;4.60;;
56519;SDS011;42420;53.586;10.052;2024-01-06T16:02:59;7.55;;;3.83;;
56519;SDS011;42420;53.586;10.052;2024-01-06T16:07:56;7.55;;;3.30;;
56519;SDS011;42420;53.586;10.052;2024-01-06T16:12:52;6.80;;;3.78;;
56519;SDS011;42420;53.586;10.052;2024-01-06T16:17:49;7.88;;;3.90;;
56519;SDS011;42420;53.586;10.052;2024-01-06T16:22:46;8.52;;;4.70;;
56519;SDS011;42420;53.586;10.052;2024-01-06T16:27:42;8.88;;;3.78;;
56519;SDS011;42420;53.586;10.052;2024-01-06T16:32:39;7.95;;;4.20;;
56519;SDS011;42420;53.586;10.052;2024-01-06T16:37:35;8.68;;;4.35;;
56519;SDS011;42420;53.586;10.052;2024-01-06T16:42:32;7.90;;;3.58;;
56519;SDS011;42420;53.586;10.052;2024-01-06T16:47:29;7.10;;;3.50;;
56519;SDS011;42420;53.586;10.052;2024-01-06T16:52:25;7.68;;;3.22;;
56519;SDS011;42420;53.586;10.052;2024-01-06T16:57:22;6.75;;;3.15;;
56519;SDS011;42420;53.586;10.052;2024-01-06T17:02:18;7.68;;;3.55;;
56519;SDS011;42420;53.586;10.052;2024-01-06T17:07:15;6.22;;;3.50;;
56519;SDS011;42420;53.586;10.052;2024-01-06T17:12:12;7.20;;;3.65;;
56519;SDS011;42420;53.586;10.052;2024-01-06T17:17:09;5.95;;;3.25;;
56519;SDS011;42420;53.586;10.052;2024-01-06T17:22:06;6.90;;;2.97;;
56519;SDS011;42420;53.586;10.052;2024-01-06T17:27:02;8.82;;;3.42;;
56519;SDS011;42420;53.586;10.052;2024-01-06T17:31:59;5.93;;;3.00;;
56519;SDS011;42420;53.586;10.052;2024-01-06T17:36:56;7.88;;;4.10;;
56519;SDS011;42420;53.586;10.052;2024-01-06T17:41:53;9.35;;;4.32;;
56519;SDS011;42420;53.586;10.052;2024-01-06T17:46:55;8.13;;;4.22;;
56519;SDS011;42420;53.586;10.052;2024-01-06T17:51:52;8.18;;;3.80;;
56519;SDS011;42420;53.586;10.052;2024-01-06T17:56:49;9.70;;;4.57;;
56519;SDS011;42420;53.586;10.052;2024-01-06T18:01:45;7.80;;;4.25;;
56519;SDS011;42420;53.586;10.052;2024-01-06T18:06:42;7.32;;;3.90;;
56519;SDS011;42420;53.586;10.052;2024-01-06T18:11:40;6.60;;;3.40;;
56519;SDS011;42420;53.586;10.052;2024-01-06T18:16:40;9.27;;;3.67;;
56519;SDS011;42420;53.586;10.052;2024-01-06T18:21:36;6.63;;;3.20;;
56519;SDS011;42420;53.586;10.052;2024-01-06T18:26:33;6.43;;;3.47;;
56519;SDS011;42420;53.586;10.052;2024-01-06T18:31:30;7.63;;;3.42;;
56519;SDS011;42420;53.586;10.052;2024-01-06T18:36:28;6.88;;;3.22;;
56519;SDS011;42420;53.586;10.052;2024-01-06T18:41:24;6.50;;;3.85;;
56519;SDS011;42420;53.586;10.052;2024-01-06T18:46:22;7.13;;;3.30;;
56519;SDS011;42420;53.586;10.052;2024-01-06T18:51:18;8.13;;;3.55;;
56519;SDS011;42420;53.586;10.052;2024-01-06T18:56:15;6.53;;;3.22;;
56519;SDS011;42420;53.586;10.052;2024-01-06T19:01:12;6.28;;;2.83;;
56519;SDS011;42420;53.586;10.052;2024-01-06T19:06:08;6.03;;;3.05;;
56519;SDS011;42420;53.586;10.052;2024-01-06T19:11:05;8.00;;;3.58;;
56519;SDS011;42420;53.586;10.052;2024-01-06T19:16:01;5.70;;;2.78;;
56519;SDS011;42420;53.586;10.052;2024-01-06T19:20:58;5.38;;;2.47;;
56519;SDS011;42420;53.586;10.052;2024-01-06T19:25:55;5.70;;;3.05;;
56519;SDS011;42420;53.586;10.052;2024-01-06T19:30:51;6.22;;;3.05;;
56519;SDS011;42420;53.586;10.052;2024-01-06T19:35:49;6.65;;;3.20;;
56519;SDS011;42420;53.586;10.052;2024-01-06T19:40:46;6.10;;;2.92;;
56519;SDS011;42420;53.586;10.052;2024-01-06T19:45:42;7.90;;;2.97;;
56519;SDS011;42420;53.586;10.052;2024-01-06T19:50:39;6.40;;;2.70;;
56519;SDS011;42420;53.586;10.052;2024-01-06T19:55:36;5.35;;;2.60;;
56519;SDS011;42420;53.586;10.052;2024-01-06T20:00:32;5.57;;;2.63;;
56519;SDS011;42420;53.586;10.052;2024-01-06T20:05:29;6.50;;;2.60;;
56519;SDS011;42420;53.586;10.052;2024-01-06T20:10:25;7.72;;;2.70;;
56519;SDS011;42420;53.586;10.052;2024-01-06T20:15:22;6.93;;;2.53;;
56519;SDS011;42420;53.586;10.052;2024-01-06T20:20:19;7.10;;;2.72;;
56519;SDS011;42420;53.586;10.052;2024-01-06T20:25:16;6.82;;;2.72;;
56519;SDS011;42420;53.586;10.052;2024-01-06T20:30:13;6.30;;;2.97;;
56519;SDS011;42420;53.586;10.052;2024-01-06T20:35:09;7.78;;;2.67;;
56519;SDS011;42420;53.586;10.052;2024-01-06T20:40:06;5.25;;;2.13;;
56519;SDS011;42420;53.586;10.052;2024-01-06T20:45:06;6.85;;;2.40;;
56519;SDS011;42420;53.586;10.052;2024-01-06T20:50:05;6.20;;;2.20;;
56519;SDS011;42420;53.586;10.052;2024-01-06T20:55:02;7.97;;;2.10;;
56519;SDS011;42420;53.586;10.052;2024-01-06T21:00:00;5.18;;;2.20;;
56519;SDS011;42420;53.586;10.052;2024-01-06T21:04:57;7.80;;;3.53;;
56519;SDS011;42420;53.586;10.052;2024-01-06T21:09:59;5.93;;;1.95;;
56519;SDS011;42420;53.586;10.052;2024-01-06T21:15:00;7.30;;;2.10;;
56519;SDS011;42420;53.586;10.052;2024-01-06T21:19:57;3.83;;;1.40;;
56519;SDS011;42420;53.586;10.052;2024-01-06T21:24:55;4.82;;;1.90;;
56519;SDS011;42420;53.586;10.052;2024-01-06T21:29:52;5.45;;;2.00;;
56519;SDS011;42420;53.586;10.052;2024-01-06T21:34:48;5.35;;;1.80;;
56519;SDS011;42420;53.586;10.052;2024-01-06T21:39:45;6.60;;;2.00;;
56519;SDS011;42420;53.586;10.052;2024-01-06T21:44:41;5.82;;;1.90;;
56519;SDS011;42420;53.586;10.052;2024-01-06T21:49:38;4.88;;;1.88;;
56519;SDS011;42420;53.586;10.052;2024-01-06T21:54:36;3.90;;;1.77;;
56519;SDS011;42420;53.586;10.052;2024-01-06T21:59:33;3.92;;;1.65;;
56519;SDS011;42420;53.586;10.052;2024-01-06T22:09:26;4.85;;;1.80;;
56519;SDS011;42420;53.586;10.052;2024-01-06T22:14:22;7.13;;;1.95;;
56519;SDS011;42420;53.586;10.052;2024-01-06T22:24:16;3.70;;;1.52;;
56519;SDS011;42420;53.586;10.052;2024-01-06T22:29:12;4.63;;;1.73;;
56519;SDS011;42420;53.586;10.052;2024-01-06T22:34:12;4.43;;;1.35;;
56519;SDS011;42420;53.586;10.052;2024-01-06T22:39:09;4.88;;;2.25;;
56519;SDS011;42420;53.586;10.052;2024-01-06T22:44:06;4.57;;;1.40;;
56519;SDS011;42420;53.586;10.052;2024-01-06T22:49:02;7.22;;;1.80;;
56519;SDS011;42420;53.586;10.052;2024-01-06T22:53:59;4.63;;;1.30;;
56519;SDS011;42420;53.586;10.052;2024-01-06T22:58:56;4.78;;;1.70;;
56519;SDS011;42420;53.586;10.052;2024-01-06T23:03:55;4.03;;;1.38;;
56519;SDS011;42420;53.586;10.052;2024-01-06T23:08:52;4.97;;;1.70;;
56519;SDS011;42420;53.586;10.052;2024-01-06T23:13:49;3.97;;;1.48;;
56519;SDS011;42420;53.586;10.052;2024-01-06T23:18:45;4.82;;;1.58;;
56519;SDS011;42420;53.586;10.052;2024-01-06T23:23:42;4.03;;;1.35;;
56519;SDS011;42420;53.586;10.052;2024-01-06T23:28:39;4.28;;;1.48;;
56519;SDS011;42420;53.586;10.052;2024-01-06T23:33:35;5.28;;;1.70;;
56519;SDS011;42420;53.586;10.052;2024-01-06T23:38:32;4.50;;;1.40;;
56519;SDS011;42420;53.586;10.052;2024-01-06T23:43:29;4.60;;;1.50;;
56519;SDS011;42420;53.586;10.052;2024-01-06T23:48:25;4.78;;;1.35;;
56519;SDS011;42420;53.586;10.052;2024-01-06T23:53:22;3.35;;;1.20;;
56519;SDS011;42420;53.586;10.052;2024-01-06T23:58:19;4.70;;;1.40;;
